Betagas — V2KA8 — position and weather

sailwx.info

Track history (hours):
 
Tides and Currents Weather Stations Pressure Air Temp Water Temp Dewpoint Dewpoint Depression Visibility Wind Speed Wind Dir Waves Ship Positions

Betagas

Last reported at 2018-Feb-22 13:55 UTC. Time now 2018-Feb-22 14:30 UTC.
Position N 53°33' E 000°04'.

Length 114.6 m; beam 15.7 m; draft 7.4 m.

Type: Tanker. MMSI: 304050636.

Date/timePositionNaut miles runAvg speedWind from/ knotsBaromVisibWave heightAir tempDewpointWater temp
2018-Feb-22 13:55N 53°33' E 000°04'0 0.1
2018-Feb-22 13:01N 53°33' E 000°04'0 0.0
2018-Feb-22 12:46N 53°33' E 000°04'0 0.1
2018-Feb-22 12:19N 53°33' E 000°04'0 0.0
2018-Feb-22 11:58N 53°33' E 000°04'0 0.2
2018-Feb-22 11:19N 53°33' E 000°04'0 0.0
2018-Feb-22 03:49N 53°33' E 000°04'0 0.2
2018-Feb-22 03:28N 53°33' E 000°04'0 0.1
2018-Feb-22 02:49N 53°33' E 000°04'0 0.0
2018-Feb-22 02:22N 53°33' E 000°04'0 0.0
2018-Feb-22 01:58N 53°33' E 000°04'0 0.1
2018-Feb-22 01:30N 53°33' E 000°04'4 7.2
2018-Feb-22 00:58N 53°33' E 000°11'80 2.7
2018-Feb-20 19:41N 54°41' W 001°01'0 0.0
2018-Feb-20 19:30N 54°41' W 001°01'0 0.0
2018-Feb-20 19:00N 54°41' W 001°01'0 0.0
2018-Feb-20 18:30N 54°41' W 001°01'12111.9
2018-Feb-20 08:19N 53°12' E 001°18'514.3
2018-Feb-20 07:58N 53°08' E 001°23'714.8
2018-Feb-20 07:30N 53°02' E 001°28'815.4
2018-Feb-20 07:00N 52°56' E 001°36'816.3
2018-Feb-20 06:30N 52°50' E 001°46'816.7
2018-Feb-20 06:01N 52°46' E 001°58'5716.6
2018-Feb-20 02:36N 51°53' E 002°31'614.7
2018-Feb-20 02:11N 51°48' E 002°36'715.7
2018-Feb-20 01:45N 51°42' E 002°29'415.2
2018-Feb-20 01:29N 51°39' E 002°25'715.0
2018-Feb-20 01:00N 51°33' E 002°18'714.5
2018-Feb-20 00:30N 51°27' E 002°11'713.6
2018-Feb-20 00:00N 51°21' E 002°07'713.8
2018-Feb-19 23:30N 51°14' E 002°05'612.5
2018-Feb-19 23:01N 51°11' E 001°57'612.3
2018-Feb-19 22:30N 51°08' E 001°48'611.8
2018-Feb-19 22:00N 51°04' E 001°41'510.5
2018-Feb-19 21:30N 51°01' E 001°35'2 4.1
2018-Feb-19 21:00N 50°59' E 001°33'3 6.6
2018-Feb-19 20:30N 50°57' E 001°29'612.4
2018-Feb-19 20:00N 50°51' E 001°25'713.3
2018-Feb-19 19:30N 50°45' E 001°22'5513.6
2018-Feb-19 15:29N 50°18' E 000°07'613.4
2018-Feb-19 15:00N 50°14' W 000°00'715.0
2018-Feb-19 14:30N 50°06' W 000°03'815.2
2018-Feb-19 14:00N 49°59' W 000°07'815.4
2018-Feb-19 13:30N 49°51' W 000°08'815.6
2018-Feb-19 13:00N 49°44' W 000°09'815.3
2018-Feb-19 12:30N 49°36' W 000°10'613.0
2018-Feb-19 12:00N 49°30' W 000°08'713.0
2018-Feb-19 11:30N 49°27' E 000°01'5 9.7
2018-Feb-19 11:00N 49°26' E 000°08'611.5
2018-Feb-19 10:31N 49°26' E 000°17'510.0
2018-Feb-19 10:01N 49°27' E 000°25'5 9.2
2018-Feb-19 09:30N 49°29' E 000°31'1 2.5
2018-Feb-19 08:59N 49°28' E 000°32'0 0.0
2018-Feb-19 08:28N 49°28' E 000°32'0 0.0
2018-Feb-19 07:58N 49°28' E 000°32'0 0.0
2018-Feb-19 07:28N 49°28' E 000°32'0 0.0
2018-Feb-19 06:58N 49°28' E 000°32'0 0.0
2018-Feb-19 06:28N 49°28' E 000°32'0 0.0
2018-Feb-19 05:55N 49°28' E 000°32'0 0.0
2018-Feb-19 05:28N 49°28' E 000°32'0 0.0
2018-Feb-19 04:58N 49°28' E 000°32'0 0.0
2018-Feb-19 04:28N 49°28' E 000°32'0 0.0
2018-Feb-19 03:58N 49°28' E 000°32'0 0.0
2018-Feb-19 03:28N 49°28' E 000°32'0 0.0
2018-Feb-19 02:59N 49°28' E 000°32'0 0.0
2018-Feb-19 02:28N 49°28' E 000°32'0 0.0
2018-Feb-19 01:58N 49°28' E 000°32'0 0.0
2018-Feb-19 01:28N 49°28' E 000°32'0 0.0
2018-Feb-19 00:58N 49°28' E 000°32'0 0.0
2018-Feb-19 00:25N 49°28' E 000°32'0 0.0
2018-Feb-18 23:58N 49°28' E 000°32'0 0.0
2018-Feb-18 23:28N 49°28' E 000°32'0 0.0
2018-Feb-18 22:58N 49°28' E 000°32'0 0.0
2018-Feb-18 22:28N 49°28' E 000°32'0 0.0
2018-Feb-18 21:58N 49°28' E 000°32'0 0.0
2018-Feb-18 21:28N 49°28' E 000°32'0 0.0
2018-Feb-18 20:59N 49°28' E 000°32'0 0.0
2018-Feb-18 20:25N 49°28' E 000°32'0 0.0
2018-Feb-18 19:58N 49°28' E 000°32'0 0.0
2018-Feb-18 19:28N 49°28' E 000°32'0 0.0
2018-Feb-18 18:58N 49°28' E 000°32'0 0.0
2018-Feb-18 18:28N 49°28' E 000°32'0 0.0
2018-Feb-18 17:58N 49°28' E 000°32'0 0.0
2018-Feb-18 17:28N 49°28' E 000°32'0 0.0
2018-Feb-18 16:58N 49°28' E 000°32'0 0.0
2018-Feb-18 16:28N 49°28' E 000°32'0 0.0
2018-Feb-18 15:58N 49°28' E 000°32'0 0.0
2018-Feb-18 15:28N 49°28' E 000°32'0 0.0
2018-Feb-18 14:58N 49°28' E 000°32'0 0.0
2018-Feb-18 14:28N 49°28' E 000°32'0 0.0
2018-Feb-18 13:59N 49°28' E 000°32'0 0.0
2018-Feb-18 13:29N 49°28' E 000°32'0 0.0
2018-Feb-18 12:58N 49°28' E 000°32'0 0.0
2018-Feb-18 12:28N 49°28' E 000°32'0 0.0
2018-Feb-18 11:58N 49°28' E 000°32'0 0.0
2018-Feb-18 11:28N 49°28' E 000°32'0 0.0
2018-Feb-18 10:58N 49°28' E 000°32'0 0.0
2018-Feb-18 10:28N 49°28' E 000°32'0 0.0
2018-Feb-18 09:58N 49°28' E 000°32'0 0.0
2018-Feb-18 09:28N 49°28' E 000°32'0 0.0
2018-Feb-18 08:58N 49°28' E 000°32'0 0.0
2018-Feb-18 08:28N 49°28' E 000°32'0 0.0
2018-Feb-18 07:58N 49°28' E 000°32'0 0.0
2018-Feb-18 07:28N 49°28' E 000°32'0 0.0
2018-Feb-18 06:58N 49°28' E 000°32'0 0.0
2018-Feb-18 06:28N 49°28' E 000°32'0 0.0
2018-Feb-18 05:58N 49°28' E 000°32'0 0.0
2018-Feb-18 05:28N 49°28' E 000°32'0 0.0
2018-Feb-18 04:58N 49°28' E 000°32'0 0.0
2018-Feb-18 04:28N 49°28' E 000°32'0 0.0
2018-Feb-18 03:59N 49°28' E 000°32'0 0.0
2018-Feb-18 03:29N 49°28' E 000°32'0 0.0
2018-Feb-18 02:59N 49°28' E 000°32'0 0.0
2018-Feb-18 02:28N 49°28' E 000°32'0 0.0
2018-Feb-18 01:58N 49°28' E 000°32'0 0.0
2018-Feb-18 01:29N 49°28' E 000°32'0 0.0
2018-Feb-18 00:58N 49°28' E 000°32'0 0.0
2018-Feb-18 00:29N 49°28' E 000°32'0 0.0
2018-Feb-17 23:58N 49°28' E 000°32'0 0.0
2018-Feb-17 23:28N 49°28' E 000°32'0 0.0
2018-Feb-17 22:58N 49°28' E 000°32'0 0.0
2018-Feb-17 22:28N 49°28' E 000°32'0 0.0
2018-Feb-17 21:59N 49°28' E 000°32'0 0.0
2018-Feb-17 21:28N 49°28' E 000°32'0 0.0
2018-Feb-17 20:59N 49°28' E 000°32'0 0.0
2018-Feb-17 20:28N 49°28' E 000°32'0 0.0
2018-Feb-17 19:58N 49°28' E 000°32'0 0.0
2018-Feb-17 19:28N 49°28' E 000°32'0 0.0
2018-Feb-17 18:58N 49°28' E 000°32'0 0.0
2018-Feb-17 18:28N 49°28' E 000°32'0 0.0
2018-Feb-17 17:58N 49°28' E 000°32'0 0.0
2018-Feb-17 17:28N 49°28' E 000°32'0 0.0
2018-Feb-17 16:58N 49°28' E 000°32'0 0.0
2018-Feb-17 16:28N 49°28' E 000°32'0 0.0
2018-Feb-17 15:59N 49°28' E 000°32'0 0.0
2018-Feb-17 15:28N 49°28' E 000°32'0 0.0
2018-Feb-17 14:58N 49°28' E 000°32'0 0.0
2018-Feb-17 14:28N 49°28' E 000°32'0 0.0
2018-Feb-17 13:58N 49°28' E 000°32'0 0.0
2018-Feb-17 13:25N 49°28' E 000°32'0 0.0
2018-Feb-17 12:58N 49°28' E 000°32'0 0.0
2018-Feb-17 12:28N 49°28' E 000°32'0 0.0
2018-Feb-17 11:58N 49°28' E 000°32'0 0.0
2018-Feb-17 11:28N 49°28' E 000°32'0 0.0
2018-Feb-17 10:58N 49°28' E 000°32'0 0.0
2018-Feb-17 10:28N 49°28' E 000°32'0 0.0
2018-Feb-17 09:58N 49°28' E 000°32'0 0.0
2018-Feb-17 09:28N 49°28' E 000°32'0 0.0
2018-Feb-17 08:58N 49°28' E 000°32'0 0.0
2018-Feb-17 08:28N 49°28' E 000°32'0 0.0
2018-Feb-17 07:58N 49°28' E 000°32'0 0.0
2018-Feb-17 07:25N 49°28' E 000°32'0 0.0
2018-Feb-17 06:58N 49°28' E 000°32'0 0.0
2018-Feb-17 06:28N 49°28' E 000°32'0 0.0
2018-Feb-17 05:58N 49°28' E 000°32'0 0.0
2018-Feb-17 05:28N 49°28' E 000°32'0 0.0
2018-Feb-17 04:55N 49°28' E 000°32'0 0.0
2018-Feb-17 04:28N 49°28' E 000°32'0 0.0
2018-Feb-17 03:58N 49°28' E 000°32'0 0.0
2018-Feb-17 03:28N 49°28' E 000°32'0 0.0
2018-Feb-17 02:58N 49°28' E 000°32'0 0.0
2018-Feb-17 02:26N 49°28' E 000°32'0 0.0
2018-Feb-17 01:56N 49°28' E 000°32'0 0.0
2018-Feb-17 01:26N 49°28' E 000°32'0 0.0
2018-Feb-17 00:56N 49°28' E 000°32'0 0.0
2018-Feb-17 00:26N 49°28' E 000°32'0 0.0
2018-Feb-16 23:56N 49°28' E 000°32'0 0.0
2018-Feb-16 23:26N 49°28' E 000°32'0 0.0
2018-Feb-16 22:56N 49°28' E 000°32'0 0.0
2018-Feb-16 22:27N 49°28' E 000°32'0 0.6
2018-Feb-16 22:00N 49°28' E 000°32'4 7.2
2018-Feb-16 21:31N 49°28' E 000°27'612.3
2018-Feb-16 21:00N 49°26' E 000°18'613.0
2018-Feb-16 20:30N 49°26' E 000°08'714.2
2018-Feb-16 20:00N 49°29' W 000°03'4 7.9
2018-Feb-16 19:30N 49°30' W 000°08'3 6.8
2018-Feb-16 19:00N 49°31' W 000°13'1 2.1
2018-Feb-16 18:30N 49°32' W 000°14'1 1.8
2018-Feb-16 18:00N 49°33' W 000°13'713.8
2018-Feb-16 17:31N 49°40' W 000°10'816.4
2018-Feb-16 17:00N 49°48' W 000°08'816.5
2018-Feb-16 16:30N 49°56' W 000°07'816.0
2018-Feb-16 16:01N 50°04' W 000°06'815.5
2018-Feb-16 15:30N 50°12' W 000°05'815.3
2018-Feb-16 15:00N 50°19' W 000°04'815.2
2018-Feb-16 14:30N 50°27' W 000°02'715.0
2018-Feb-16 14:01N 50°29' E 000°09'815.2
2018-Feb-16 13:31N 50°32' E 000°20'714.7
2018-Feb-16 13:00N 50°34' E 000°31'714.3
2018-Feb-16 12:30N 50°37' E 000°41'815.1
2018-Feb-16 12:00N 50°42' E 000°51'714.7
2018-Feb-16 11:30N 50°46' E 000°60'714.0
2018-Feb-16 11:01N 50°50' E 001°09'714.0
2018-Feb-16 10:31N 50°54' E 001°18'815.1
2018-Feb-16 10:00N 51°00' E 001°25'816.0
2018-Feb-16 09:31N 51°06' E 001°35'917.8
2018-Feb-16 09:00N 51°13' E 001°44'918.5
2018-Feb-16 08:30N 51°20' E 001°51'918.1
2018-Feb-16 08:01N 51°28' E 001°59'816.9
2018-Feb-16 07:30N 51°35' E 002°07'916.9
2018-Feb-16 07:00N 51°41' E 002°17'5313.7
2018-Feb-16 03:08N 52°03' E 003°35'213.5
2018-Feb-16 03:00N 52°03' E 003°38'713.6
2018-Feb-16 02:30N 52°03' E 003°49'5 9.2
2018-Feb-16 02:00N 52°02' E 003°56'510.6
2018-Feb-16 01:30N 51°59' E 004°04'5 9.8
2018-Feb-16 01:00N 51°57' E 004°11'0 0.0
2018-Feb-16 00:27N 51°57' E 004°11'0 0.0
2018-Feb-15 23:57N 51°57' E 004°11'0 0.0
2018-Feb-15 23:30N 51°57' E 004°11'0 0.0
2018-Feb-15 23:00N 51°57' E 004°11'0 0.0
2018-Feb-15 22:30N 51°57' E 004°11'0 0.0
2018-Feb-15 22:00N 51°57' E 004°11'0 0.0
2018-Feb-15 21:27N 51°57' E 004°11'0 0.0
2018-Feb-15 21:00N 51°57' E 004°11'0 0.0
2018-Feb-15 20:30N 51°57' E 004°11'0 0.2
2018-Feb-15 20:00N 51°56' E 004°11'1 2.4
2018-Feb-15 19:25N 51°55' E 004°12'0 0.0
2018-Feb-15 18:49N 51°55' E 004°12'0 0.0
2018-Feb-15 18:28N 51°55' E 004°12'0 0.0
2018-Feb-15 17:46N 51°55' E 004°12'0 0.0
2018-Feb-15 17:25N 51°55' E 004°12'0 0.0
2018-Feb-15 16:49N 51°55' E 004°12'0 0.0
2018-Feb-15 15:43N 51°55' E 004°12'0 0.0
2018-Feb-15 15:16N 51°55' E 004°12'0 0.0
2018-Feb-15 14:55N 51°55' E 004°12'0 0.0
2018-Feb-15 14:28N 51°55' E 004°12'0 0.0
2018-Feb-15 13:49N 51°55' E 004°12'0 0.0
2018-Feb-15 13:22N 51°55' E 004°12'0 0.0
2018-Feb-15 12:52N 51°55' E 004°12'0 0.0
2018-Feb-15 12:19N 51°55' E 004°12'0 0.0
2018-Feb-15 11:31N 51°55' E 004°12'0 0.0
2018-Feb-15 11:19N 51°55' E 004°12'0 0.0
2018-Feb-15 10:46N 51°55' E 004°12'0 0.0
2018-Feb-15 10:16N 51°55' E 004°12'0 0.0
2018-Feb-15 09:55N 51°55' E 004°12'0 0.0
2018-Feb-15 09:28N 51°55' E 004°12'0 0.0
2018-Feb-15 08:52N 51°55' E 004°12'0 0.0
2018-Feb-15 08:22N 51°55' E 004°12'0 0.0
2018-Feb-15 07:55N 51°55' E 004°12'0 0.0
2018-Feb-15 07:25N 51°55' E 004°12'0 0.0
2018-Feb-15 06:49N 51°55' E 004°12'0 0.0
2018-Feb-15 06:19N 51°55' E 004°12'0 0.0
2018-Feb-15 05:46N 51°55' E 004°12'0 0.0
2018-Feb-15 05:25N 51°55' E 004°12'0 0.0
2018-Feb-15 04:55N 51°55' E 004°12'0 0.0
2018-Feb-15 04:28N 51°55' E 004°12'0 0.0
2018-Feb-15 03:52N 51°55' E 004°12'0 0.0
2018-Feb-15 03:01N 51°55' E 004°12'0 0.0
2018-Feb-15 02:49N 51°55' E 004°12'0 0.0
2018-Feb-15 02:28N 51°55' E 004°12'0 0.0
2018-Feb-15 01:49N 51°55' E 004°12'0 0.0
2018-Feb-15 01:25N 51°55' E 004°12'0 0.0
2018-Feb-14 23:52N 51°55' E 004°12'0 0.0
2018-Feb-14 23:19N 51°55' E 004°12'0 0.0
2018-Feb-14 21:40N 51°55' E 004°12'0 0.0
2018-Feb-14 21:19N 51°55' E 004°12'0 0.0
2018-Feb-14 20:43N 51°55' E 004°12'0 0.0
2018-Feb-14 20:22N 51°55' E 004°12'0 0.0
2018-Feb-14 19:49N 51°55' E 004°12'0 0.0
2018-Feb-14 19:19N 51°55' E 004°12'0 0.0
2018-Feb-14 18:57N 51°55' E 004°12'1 1.2
2018-Feb-14 18:30N 51°56' E 004°12'3 6.8
2018-Feb-14 18:00N 51°58' E 004°08'510.4
2018-Feb-14 17:30N 51°60' E 003°60'510.5
2018-Feb-14 17:00N 52°00' E 003°51'4 7.9
2018-Feb-14 16:28N 51°59' E 003°45'4 8.0
2018-Feb-14 16:00N 51°58' E 003°39'1210.6
2018-Feb-14 14:55N 51°54' E 003°21'3011.2
2018-Feb-14 12:11N 51°44' E 002°35'415.1
2018-Feb-14 11:54N 51°41' E 002°30'615.2
2018-Feb-14 11:30N 51°36' E 002°24'815.2
2018-Feb-14 10:58N 51°30' E 002°16'613.5
2018-Feb-14 10:30N 51°24' E 002°11'713.9
2018-Feb-14 10:00N 51°18' E 002°07'612.8
2018-Feb-14 09:30N 51°13' E 002°00'713.3
2018-Feb-14 09:00N 51°10' E 001°51'712.9
2018-Feb-14 08:30N 51°05' E 001°43'612.3
2018-Feb-14 08:01N 51°01' E 001°37'612.1
2018-Feb-14 07:30N 50°56' E 001°31'611.5
2018-Feb-14 07:00N 50°51' E 001°27'612.0
2018-Feb-14 06:30N 50°46' E 001°23'5811.6
2018-Feb-14 01:29N 50°17' E 000°03'711.5
2018-Feb-14 00:55N 50°11' W 000°01'511.8
2018-Feb-14 00:29N 50°06' W 000°03'511.4
2018-Feb-14 00:01N 50°01' W 000°06'611.2
2018-Feb-13 23:30N 49°56' W 000°07'611.2
2018-Feb-13 23:00N 49°50' W 000°08'511.0
2018-Feb-13 22:31N 49°45' W 000°09'611.1
2018-Feb-13 22:00N 49°39' W 000°10'5 9.5
2018-Feb-13 21:30N 49°34' W 000°11'4 8.2
2018-Feb-13 21:01N 49°30' W 000°09'510.6
2018-Feb-13 20:30N 49°28' W 000°02'510.0
2018-Feb-13 20:01N 49°26' E 000°05'612.0
2018-Feb-13 19:30N 49°26' E 000°14'611.2
2018-Feb-13 19:01N 49°27' E 000°23'510.8
2018-Feb-13 18:30N 49°29' E 000°30'2 3.6
2018-Feb-13 18:00N 49°28' E 000°32'0 0.0
2018-Feb-13 17:30N 49°28' E 000°32'0 0.0
2018-Feb-13 17:00N 49°28' E 000°32'0 0.0
2018-Feb-13 16:30N 49°28' E 000°32'0 0.0
2018-Feb-13 16:00N 49°28' E 000°32'0 0.0
2018-Feb-13 15:30N 49°28' E 000°32'0 0.0
2018-Feb-13 14:57N 49°28' E 000°32'0 0.0
2018-Feb-13 14:30N 49°28' E 000°32'0 0.0
2018-Feb-13 14:00N 49°28' E 000°32'0 0.0
2018-Feb-13 13:30N 49°28' E 000°32'0 0.0
2018-Feb-13 13:00N 49°28' E 000°32'0 0.0
2018-Feb-13 12:30N 49°28' E 000°32'0 0.0
2018-Feb-13 12:00N 49°28' E 000°32'0 0.0
2018-Feb-13 11:30N 49°28' E 000°32'0 0.0
2018-Feb-13 11:00N 49°28' E 000°32'0 0.0
2018-Feb-13 10:30N 49°28' E 000°32'0 0.0
2018-Feb-13 10:00N 49°28' E 000°32'0 0.0
2018-Feb-13 09:30N 49°28' E 000°32'0 0.0
2018-Feb-13 09:00N 49°28' E 000°32'0 0.0
2018-Feb-13 08:30N 49°28' E 000°32'0 0.0
2018-Feb-13 08:00N 49°28' E 000°32'0 0.0
2018-Feb-13 07:30N 49°28' E 000°32'0 0.0
2018-Feb-13 07:00N 49°28' E 000°32'0 0.0
2018-Feb-13 06:30N 49°28' E 000°32'0 0.0
2018-Feb-13 05:57N 49°28' E 000°32'0 0.0
2018-Feb-13 05:30N 49°28' E 000°32'0 0.0
2018-Feb-13 05:00N 49°28' E 000°32'0 0.0
2018-Feb-13 04:30N 49°28' E 000°32'0 0.0
2018-Feb-13 04:00N 49°28' E 000°32'0 0.0
2018-Feb-13 03:30N 49°28' E 000°32'0 0.0
2018-Feb-13 03:00N 49°28' E 000°32'0 0.0
2018-Feb-13 02:30N 49°28' E 000°32'0 0.0
2018-Feb-13 02:00N 49°28' E 000°32'0 0.0
2018-Feb-13 01:30N 49°28' E 000°32'0 0.0
2018-Feb-13 01:00N 49°28' E 000°32'0 0.0
2018-Feb-13 00:27N 49°28' E 000°32'0 0.0
2018-Feb-13 00:00N 49°28' E 000°32'0 0.0
2018-Feb-12 23:30N 49°28' E 000°32'0 0.0
2018-Feb-12 23:00N 49°28' E 000°32'0 0.0
2018-Feb-12 22:30N 49°28' E 000°32'0 0.0
2018-Feb-12 21:57N 49°28' E 000°32'0 0.0
2018-Feb-12 21:30N 49°28' E 000°32'0 0.0
2018-Feb-12 21:00N 49°28' E 000°32'0 0.0
2018-Feb-12 20:30N 49°28' E 000°32'0 0.0
2018-Feb-12 20:00N 49°28' E 000°32'0 0.0
2018-Feb-12 19:30N 49°28' E 000°32'0 0.0
2018-Feb-12 19:00N 49°28' E 000°32'0 0.0
2018-Feb-12 18:30N 49°28' E 000°32'0 0.0
2018-Feb-12 17:57N 49°28' E 000°32'0 0.0
2018-Feb-12 17:30N 49°28' E 000°32'0 0.0
2018-Feb-12 16:57N 49°28' E 000°32'0 0.0
2018-Feb-12 16:27N 49°28' E 000°32'0 0.0
2018-Feb-12 15:57N 49°28' E 000°32'0 0.0
2018-Feb-12 15:30N 49°28' E 000°32'0 0.0
2018-Feb-12 14:57N 49°28' E 000°32'0 0.0
2018-Feb-12 14:30N 49°28' E 000°32'0 0.0
2018-Feb-12 13:57N 49°28' E 000°32'  
Track history (hours):
 
Tides and Currents Weather Stations Pressure Air Temp Water Temp Dewpoint Dewpoint Depression Visibility Wind Speed Wind Dir Waves Ship Positions

Betagas

Last reported at 2018-Feb-22 13:55 UTC. Time now 2018-Feb-22 14:30 UTC.
Position N 53°33' E 000°04'.

Length 114.6 m; beam 15.7 m; draft 7.4 m.

Type: Tanker. MMSI: 304050636.

Date/timePositionNaut miles runAvg speedWind from/ knotsBaromVisibWave heightAir tempDewpointWater temp
2018-Feb-22 13:55N 53°33' E 000°04'0 0.1
2018-Feb-22 13:01N 53°33' E 000°04'0 0.0
2018-Feb-22 12:46N 53°33' E 000°04'0 0.1
2018-Feb-22 12:19N 53°33' E 000°04'0 0.0
2018-Feb-22 11:58N 53°33' E 000°04'0 0.2
2018-Feb-22 11:19N 53°33' E 000°04'0 0.0
2018-Feb-22 03:49N 53°33' E 000°04'0 0.2
2018-Feb-22 03:28N 53°33' E 000°04'0 0.1
2018-Feb-22 02:49N 53°33' E 000°04'0 0.0
2018-Feb-22 02:22N 53°33' E 000°04'0 0.0
2018-Feb-22 01:58N 53°33' E 000°04'0 0.1
2018-Feb-22 01:30N 53°33' E 000°04'4 7.2
2018-Feb-22 00:58N 53°33' E 000°11'80 2.7
2018-Feb-20 19:41N 54°41' W 001°01'0 0.0
2018-Feb-20 19:30N 54°41' W 001°01'0 0.0
2018-Feb-20 19:00N 54°41' W 001°01'0 0.0
2018-Feb-20 18:30N 54°41' W 001°01'12111.9
2018-Feb-20 08:19N 53°12' E 001°18'514.3
2018-Feb-20 07:58N 53°08' E 001°23'714.8
2018-Feb-20 07:30N 53°02' E 001°28'815.4
2018-Feb-20 07:00N 52°56' E 001°36'816.3
2018-Feb-20 06:30N 52°50' E 001°46'816.7
2018-Feb-20 06:01N 52°46' E 001°58'5716.6
2018-Feb-20 02:36N 51°53' E 002°31'614.7
2018-Feb-20 02:11N 51°48' E 002°36'715.7
2018-Feb-20 01:45N 51°42' E 002°29'415.2
2018-Feb-20 01:29N 51°39' E 002°25'715.0
2018-Feb-20 01:00N 51°33' E 002°18'714.5
2018-Feb-20 00:30N 51°27' E 002°11'713.6
2018-Feb-20 00:00N 51°21' E 002°07'713.8
2018-Feb-19 23:30N 51°14' E 002°05'612.5
2018-Feb-19 23:01N 51°11' E 001°57'612.3
2018-Feb-19 22:30N 51°08' E 001°48'611.8
2018-Feb-19 22:00N 51°04' E 001°41'510.5
2018-Feb-19 21:30N 51°01' E 001°35'2 4.1
2018-Feb-19 21:00N 50°59' E 001°33'3 6.6
2018-Feb-19 20:30N 50°57' E 001°29'612.4
2018-Feb-19 20:00N 50°51' E 001°25'713.3
2018-Feb-19 19:30N 50°45' E 001°22'5513.6
2018-Feb-19 15:29N 50°18' E 000°07'613.4
2018-Feb-19 15:00N 50°14' W 000°00'715.0
2018-Feb-19 14:30N 50°06' W 000°03'815.2
2018-Feb-19 14:00N 49°59' W 000°07'815.4
2018-Feb-19 13:30N 49°51' W 000°08'815.6
2018-Feb-19 13:00N 49°44' W 000°09'815.3
2018-Feb-19 12:30N 49°36' W 000°10'613.0
2018-Feb-19 12:00N 49°30' W 000°08'713.0
2018-Feb-19 11:30N 49°27' E 000°01'5 9.7
2018-Feb-19 11:00N 49°26' E 000°08'611.5
2018-Feb-19 10:31N 49°26' E 000°17'510.0
2018-Feb-19 10:01N 49°27' E 000°25'5 9.2
2018-Feb-19 09:30N 49°29' E 000°31'1 2.5
2018-Feb-19 08:59N 49°28' E 000°32'0 0.0
2018-Feb-19 08:28N 49°28' E 000°32'0 0.0
2018-Feb-19 07:58N 49°28' E 000°32'0 0.0
2018-Feb-19 07:28N 49°28' E 000°32'0 0.0
2018-Feb-19 06:58N 49°28' E 000°32'0 0.0
2018-Feb-19 06:28N 49°28' E 000°32'0 0.0
2018-Feb-19 05:55N 49°28' E 000°32'0 0.0
2018-Feb-19 05:28N 49°28' E 000°32'0 0.0
2018-Feb-19 04:58N 49°28' E 000°32'0 0.0
2018-Feb-19 04:28N 49°28' E 000°32'0 0.0
2018-Feb-19 03:58N 49°28' E 000°32'0 0.0
2018-Feb-19 03:28N 49°28' E 000°32'0 0.0
2018-Feb-19 02:59N 49°28' E 000°32'0 0.0
2018-Feb-19 02:28N 49°28' E 000°32'0 0.0
2018-Feb-19 01:58N 49°28' E 000°32'0 0.0
2018-Feb-19 01:28N 49°28' E 000°32'0 0.0
2018-Feb-19 00:58N 49°28' E 000°32'0 0.0
2018-Feb-19 00:25N 49°28' E 000°32'0 0.0
2018-Feb-18 23:58N 49°28' E 000°32'0 0.0
2018-Feb-18 23:28N 49°28' E 000°32'0 0.0
2018-Feb-18 22:58N 49°28' E 000°32'0 0.0
2018-Feb-18 22:28N 49°28' E 000°32'0 0.0
2018-Feb-18 21:58N 49°28' E 000°32'0 0.0
2018-Feb-18 21:28N 49°28' E 000°32'0 0.0
2018-Feb-18 20:59N 49°28' E 000°32'0 0.0
2018-Feb-18 20:25N 49°28' E 000°32'0 0.0
2018-Feb-18 19:58N 49°28' E 000°32'0 0.0
2018-Feb-18 19:28N 49°28' E 000°32'0 0.0
2018-Feb-18 18:58N 49°28' E 000°32'0 0.0
2018-Feb-18 18:28N 49°28' E 000°32'0 0.0
2018-Feb-18 17:58N 49°28' E 000°32'0 0.0
2018-Feb-18 17:28N 49°28' E 000°32'0 0.0
2018-Feb-18 16:58N 49°28' E 000°32'0 0.0
2018-Feb-18 16:28N 49°28' E 000°32'0 0.0
2018-Feb-18 15:58N 49°28' E 000°32'0 0.0
2018-Feb-18 15:28N 49°28' E 000°32'0 0.0
2018-Feb-18 14:58N 49°28' E 000°32'0 0.0
2018-Feb-18 14:28N 49°28' E 000°32'0 0.0
2018-Feb-18 13:59N 49°28' E 000°32'0 0.0
2018-Feb-18 13:29N 49°28' E 000°32'0 0.0
2018-Feb-18 12:58N 49°28' E 000°32'0 0.0
2018-Feb-18 12:28N 49°28' E 000°32'0 0.0
2018-Feb-18 11:58N 49°28' E 000°32'0 0.0
2018-Feb-18 11:28N 49°28' E 000°32'0 0.0
2018-Feb-18 10:58N 49°28' E 000°32'0 0.0
2018-Feb-18 10:28N 49°28' E 000°32'0 0.0
2018-Feb-18 09:58N 49°28' E 000°32'0 0.0
2018-Feb-18 09:28N 49°28' E 000°32'0 0.0
2018-Feb-18 08:58N 49°28' E 000°32'0 0.0
2018-Feb-18 08:28N 49°28' E 000°32'0 0.0
2018-Feb-18 07:58N 49°28' E 000°32'0 0.0
2018-Feb-18 07:28N 49°28' E 000°32'0 0.0
2018-Feb-18 06:58N 49°28' E 000°32'0 0.0
2018-Feb-18 06:28N 49°28' E 000°32'0 0.0
2018-Feb-18 05:58N 49°28' E 000°32'0 0.0
2018-Feb-18 05:28N 49°28' E 000°32'0 0.0
2018-Feb-18 04:58N 49°28' E 000°32'0 0.0
2018-Feb-18 04:28N 49°28' E 000°32'0 0.0
2018-Feb-18 03:59N 49°28' E 000°32'0 0.0
2018-Feb-18 03:29N 49°28' E 000°32'0 0.0
2018-Feb-18 02:59N 49°28' E 000°32'0 0.0
2018-Feb-18 02:28N 49°28' E 000°32'0 0.0
2018-Feb-18 01:58N 49°28' E 000°32'0 0.0
2018-Feb-18 01:29N 49°28' E 000°32'0 0.0
2018-Feb-18 00:58N 49°28' E 000°32'0 0.0
2018-Feb-18 00:29N 49°28' E 000°32'0 0.0
2018-Feb-17 23:58N 49°28' E 000°32'0 0.0
2018-Feb-17 23:28N 49°28' E 000°32'0 0.0
2018-Feb-17 22:58N 49°28' E 000°32'0 0.0
2018-Feb-17 22:28N 49°28' E 000°32'0 0.0
2018-Feb-17 21:59N 49°28' E 000°32'0 0.0
2018-Feb-17 21:28N 49°28' E 000°32'0 0.0
2018-Feb-17 20:59N 49°28' E 000°32'0 0.0
2018-Feb-17 20:28N 49°28' E 000°32'0 0.0
2018-Feb-17 19:58N 49°28' E 000°32'0 0.0
2018-Feb-17 19:28N 49°28' E 000°32'0 0.0
2018-Feb-17 18:58N 49°28' E 000°32'0 0.0
2018-Feb-17 18:28N 49°28' E 000°32'0 0.0
2018-Feb-17 17:58N 49°28' E 000°32'0 0.0
2018-Feb-17 17:28N 49°28' E 000°32'0 0.0
2018-Feb-17 16:58N 49°28' E 000°32'0 0.0
2018-Feb-17 16:28N 49°28' E 000°32'0 0.0
2018-Feb-17 15:59N 49°28' E 000°32'0 0.0
2018-Feb-17 15:28N 49°28' E 000°32'0 0.0
2018-Feb-17 14:58N 49°28' E 000°32'0 0.0
2018-Feb-17 14:28N 49°28' E 000°32'0 0.0
2018-Feb-17 13:58N 49°28' E 000°32'0 0.0
2018-Feb-17 13:25N 49°28' E 000°32'0 0.0
2018-Feb-17 12:58N 49°28' E 000°32'0 0.0
2018-Feb-17 12:28N 49°28' E 000°32'0 0.0
2018-Feb-17 11:58N 49°28' E 000°32'0 0.0
2018-Feb-17 11:28N 49°28' E 000°32'0 0.0
2018-Feb-17 10:58N 49°28' E 000°32'0 0.0
2018-Feb-17 10:28N 49°28' E 000°32'0 0.0
2018-Feb-17 09:58N 49°28' E 000°32'0 0.0
2018-Feb-17 09:28N 49°28' E 000°32'0 0.0
2018-Feb-17 08:58N 49°28' E 000°32'0 0.0
2018-Feb-17 08:28N 49°28' E 000°32'0 0.0
2018-Feb-17 07:58N 49°28' E 000°32'0 0.0
2018-Feb-17 07:25N 49°28' E 000°32'0 0.0
2018-Feb-17 06:58N 49°28' E 000°32'0 0.0
2018-Feb-17 06:28N 49°28' E 000°32'0 0.0
2018-Feb-17 05:58N 49°28' E 000°32'0 0.0
2018-Feb-17 05:28N 49°28' E 000°32'0 0.0
2018-Feb-17 04:55N 49°28' E 000°32'0 0.0
2018-Feb-17 04:28N 49°28' E 000°32'0 0.0
2018-Feb-17 03:58N 49°28' E 000°32'0 0.0
2018-Feb-17 03:28N 49°28' E 000°32'0 0.0
2018-Feb-17 02:58N 49°28' E 000°32'0 0.0
2018-Feb-17 02:26N 49°28' E 000°32'0 0.0
2018-Feb-17 01:56N 49°28' E 000°32'0 0.0
2018-Feb-17 01:26N 49°28' E 000°32'0 0.0
2018-Feb-17 00:56N 49°28' E 000°32'0 0.0
2018-Feb-17 00:26N 49°28' E 000°32'0 0.0
2018-Feb-16 23:56N 49°28' E 000°32'0 0.0
2018-Feb-16 23:26N 49°28' E 000°32'0 0.0
2018-Feb-16 22:56N 49°28' E 000°32'0 0.0
2018-Feb-16 22:27N 49°28' E 000°32'0 0.6
2018-Feb-16 22:00N 49°28' E 000°32'4 7.2
2018-Feb-16 21:31N 49°28' E 000°27'612.3
2018-Feb-16 21:00N 49°26' E 000°18'613.0
2018-Feb-16 20:30N 49°26' E 000°08'714.2
2018-Feb-16 20:00N 49°29' W 000°03'4 7.9
2018-Feb-16 19:30N 49°30' W 000°08'3 6.8
2018-Feb-16 19:00N 49°31' W 000°13'1 2.1
2018-Feb-16 18:30N 49°32' W 000°14'1 1.8
2018-Feb-16 18:00N 49°33' W 000°13'713.8
2018-Feb-16 17:31N 49°40' W 000°10'816.4
2018-Feb-16 17:00N 49°48' W 000°08'816.5
2018-Feb-16 16:30N 49°56' W 000°07'816.0
2018-Feb-16 16:01N 50°04' W 000°06'815.5
2018-Feb-16 15:30N 50°12' W 000°05'815.3
2018-Feb-16 15:00N 50°19' W 000°04'815.2
2018-Feb-16 14:30N 50°27' W 000°02'715.0
2018-Feb-16 14:01N 50°29' E 000°09'815.2
2018-Feb-16 13:31N 50°32' E 000°20'714.7
2018-Feb-16 13:00N 50°34' E 000°31'714.3
2018-Feb-16 12:30N 50°37' E 000°41'815.1
2018-Feb-16 12:00N 50°42' E 000°51'714.7
2018-Feb-16 11:30N 50°46' E 000°60'714.0
2018-Feb-16 11:01N 50°50' E 001°09'714.0
2018-Feb-16 10:31N 50°54' E 001°18'815.1
2018-Feb-16 10:00N 51°00' E 001°25'816.0
2018-Feb-16 09:31N 51°06' E 001°35'917.8
2018-Feb-16 09:00N 51°13' E 001°44'918.5
2018-Feb-16 08:30N 51°20' E 001°51'918.1
2018-Feb-16 08:01N 51°28' E 001°59'816.9
2018-Feb-16 07:30N 51°35' E 002°07'916.9
2018-Feb-16 07:00N 51°41' E 002°17'5313.7
2018-Feb-16 03:08N 52°03' E 003°35'213.5
2018-Feb-16 03:00N 52°03' E 003°38'713.6
2018-Feb-16 02:30N 52°03' E 003°49'5 9.2
2018-Feb-16 02:00N 52°02' E 003°56'510.6
2018-Feb-16 01:30N 51°59' E 004°04'5 9.8
2018-Feb-16 01:00N 51°57' E 004°11'0 0.0
2018-Feb-16 00:27N 51°57' E 004°11'0 0.0
2018-Feb-15 23:57N 51°57' E 004°11'0 0.0
2018-Feb-15 23:30N 51°57' E 004°11'0 0.0
2018-Feb-15 23:00N 51°57' E 004°11'0 0.0
2018-Feb-15 22:30N 51°57' E 004°11'0 0.0
2018-Feb-15 22:00N 51°57' E 004°11'0 0.0
2018-Feb-15 21:27N 51°57' E 004°11'0 0.0
2018-Feb-15 21:00N 51°57' E 004°11'0 0.0
2018-Feb-15 20:30N 51°57' E 004°11'0 0.2
2018-Feb-15 20:00N 51°56' E 004°11'1 2.4
2018-Feb-15 19:25N 51°55' E 004°12'0 0.0
2018-Feb-15 18:49N 51°55' E 004°12'0 0.0
2018-Feb-15 18:28N 51°55' E 004°12'0 0.0
2018-Feb-15 17:46N 51°55' E 004°12'0 0.0
2018-Feb-15 17:25N 51°55' E 004°12'0 0.0
2018-Feb-15 16:49N 51°55' E 004°12'0 0.0
2018-Feb-15 15:43N 51°55' E 004°12'0 0.0
2018-Feb-15 15:16N 51°55' E 004°12'0 0.0
2018-Feb-15 14:55N 51°55' E 004°12'0 0.0
2018-Feb-15 14:28N 51°55' E 004°12'0 0.0
2018-Feb-15 13:49N 51°55' E 004°12'0 0.0
2018-Feb-15 13:22N 51°55' E 004°12'0 0.0
2018-Feb-15 12:52N 51°55' E 004°12'0 0.0
2018-Feb-15 12:19N 51°55' E 004°12'0 0.0
2018-Feb-15 11:31N 51°55' E 004°12'0 0.0
2018-Feb-15 11:19N 51°55' E 004°12'0 0.0
2018-Feb-15 10:46N 51°55' E 004°12'0 0.0
2018-Feb-15 10:16N 51°55' E 004°12'0 0.0
2018-Feb-15 09:55N 51°55' E 004°12'0 0.0
2018-Feb-15 09:28N 51°55' E 004°12'0 0.0
2018-Feb-15 08:52N 51°55' E 004°12'0 0.0
2018-Feb-15 08:22N 51°55' E 004°12'0 0.0
2018-Feb-15 07:55N 51°55' E 004°12'0 0.0
2018-Feb-15 07:25N 51°55' E 004°12'0 0.0
2018-Feb-15 06:49N 51°55' E 004°12'0 0.0
2018-Feb-15 06:19N 51°55' E 004°12'0 0.0
2018-Feb-15 05:46N 51°55' E 004°12'0 0.0
2018-Feb-15 05:25N 51°55' E 004°12'0 0.0
2018-Feb-15 04:55N 51°55' E 004°12'0 0.0
2018-Feb-15 04:28N 51°55' E 004°12'0 0.0
2018-Feb-15 03:52N 51°55' E 004°12'0 0.0
2018-Feb-15 03:01N 51°55' E 004°12'0 0.0
2018-Feb-15 02:49N 51°55' E 004°12'0 0.0
2018-Feb-15 02:28N 51°55' E 004°12'0 0.0
2018-Feb-15 01:49N 51°55' E 004°12'0 0.0
2018-Feb-15 01:25N 51°55' E 004°12'0 0.0
2018-Feb-14 23:52N 51°55' E 004°12'0 0.0
2018-Feb-14 23:19N 51°55' E 004°12'0 0.0
2018-Feb-14 21:40N 51°55' E 004°12'0 0.0
2018-Feb-14 21:19N 51°55' E 004°12'0 0.0
2018-Feb-14 20:43N 51°55' E 004°12'0 0.0
2018-Feb-14 20:22N 51°55' E 004°12'0 0.0
2018-Feb-14 19:49N 51°55' E 004°12'0 0.0
2018-Feb-14 19:19N 51°55' E 004°12'0 0.0
2018-Feb-14 18:57N 51°55' E 004°12'1 1.2
2018-Feb-14 18:30N 51°56' E 004°12'3 6.8
2018-Feb-14 18:00N 51°58' E 004°08'510.4
2018-Feb-14 17:30N 51°60' E 003°60'510.5
2018-Feb-14 17:00N 52°00' E 003°51'4 7.9
2018-Feb-14 16:28N 51°59' E 003°45'4 8.0
2018-Feb-14 16:00N 51°58' E 003°39'1210.6
2018-Feb-14 14:55N 51°54' E 003°21'3011.2
2018-Feb-14 12:11N 51°44' E 002°35'415.1
2018-Feb-14 11:54N 51°41' E 002°30'615.2
2018-Feb-14 11:30N 51°36' E 002°24'815.2
2018-Feb-14 10:58N 51°30' E 002°16'613.5
2018-Feb-14 10:30N 51°24' E 002°11'713.9
2018-Feb-14 10:00N 51°18' E 002°07'612.8
2018-Feb-14 09:30N 51°13' E 002°00'713.3
2018-Feb-14 09:00N 51°10' E 001°51'712.9
2018-Feb-14 08:30N 51°05' E 001°43'612.3
2018-Feb-14 08:01N 51°01' E 001°37'612.1
2018-Feb-14 07:30N 50°56' E 001°31'611.5
2018-Feb-14 07:00N 50°51' E 001°27'612.0
2018-Feb-14 06:30N 50°46' E 001°23'5811.6
2018-Feb-14 01:29N 50°17' E 000°03'711.5
2018-Feb-14 00:55N 50°11' W 000°01'511.8
2018-Feb-14 00:29N 50°06' W 000°03'511.4
2018-Feb-14 00:01N 50°01' W 000°06'611.2
2018-Feb-13 23:30N 49°56' W 000°07'611.2
2018-Feb-13 23:00N 49°50' W 000°08'511.0
2018-Feb-13 22:31N 49°45' W 000°09'611.1
2018-Feb-13 22:00N 49°39' W 000°10'5 9.5
2018-Feb-13 21:30N 49°34' W 000°11'4 8.2
2018-Feb-13 21:01N 49°30' W 000°09'510.6
2018-Feb-13 20:30N 49°28' W 000°02'510.0
2018-Feb-13 20:01N 49°26' E 000°05'612.0
2018-Feb-13 19:30N 49°26' E 000°14'611.2
2018-Feb-13 19:01N 49°27' E 000°23'510.8
2018-Feb-13 18:30N 49°29' E 000°30'2 3.6
2018-Feb-13 18:00N 49°28' E 000°32'0 0.0
2018-Feb-13 17:30N 49°28' E 000°32'0 0.0
2018-Feb-13 17:00N 49°28' E 000°32'0 0.0
2018-Feb-13 16:30N 49°28' E 000°32'0 0.0
2018-Feb-13 16:00N 49°28' E 000°32'0 0.0
2018-Feb-13 15:30N 49°28' E 000°32'0 0.0
2018-Feb-13 14:57N 49°28' E 000°32'0 0.0
2018-Feb-13 14:30N 49°28' E 000°32'0 0.0
2018-Feb-13 14:00N 49°28' E 000°32'0 0.0
2018-Feb-13 13:30N 49°28' E 000°32'0 0.0
2018-Feb-13 13:00N 49°28' E 000°32'0 0.0
2018-Feb-13 12:30N 49°28' E 000°32'0 0.0
2018-Feb-13 12:00N 49°28' E 000°32'0 0.0
2018-Feb-13 11:30N 49°28' E 000°32'0 0.0
2018-Feb-13 11:00N 49°28' E 000°32'0 0.0
2018-Feb-13 10:30N 49°28' E 000°32'0 0.0
2018-Feb-13 10:00N 49°28' E 000°32'0 0.0
2018-Feb-13 09:30N 49°28' E 000°32'0 0.0
2018-Feb-13 09:00N 49°28' E 000°32'0 0.0
2018-Feb-13 08:30N 49°28' E 000°32'0 0.0
2018-Feb-13 08:00N 49°28' E 000°32'0 0.0
2018-Feb-13 07:30N 49°28' E 000°32'0 0.0
2018-Feb-13 07:00N 49°28' E 000°32'0 0.0
2018-Feb-13 06:30N 49°28' E 000°32'0 0.0
2018-Feb-13 05:57N 49°28' E 000°32'0 0.0
2018-Feb-13 05:30N 49°28' E 000°32'0 0.0
2018-Feb-13 05:00N 49°28' E 000°32'0 0.0
2018-Feb-13 04:30N 49°28' E 000°32'0 0.0
2018-Feb-13 04:00N 49°28' E 000°32'0 0.0
2018-Feb-13 03:30N 49°28' E 000°32'0 0.0
2018-Feb-13 03:00N 49°28' E 000°32'0 0.0
2018-Feb-13 02:30N 49°28' E 000°32'0 0.0
2018-Feb-13 02:00N 49°28' E 000°32'0 0.0
2018-Feb-13 01:30N 49°28' E 000°32'0 0.0
2018-Feb-13 01:00N 49°28' E 000°32'0 0.0
2018-Feb-13 00:27N 49°28' E 000°32'0 0.0
2018-Feb-13 00:00N 49°28' E 000°32'0 0.0
2018-Feb-12 23:30N 49°28' E 000°32'0 0.0
2018-Feb-12 23:00N 49°28' E 000°32'0 0.0
2018-Feb-12 22:30N 49°28' E 000°32'0 0.0
2018-Feb-12 21:57N 49°28' E 000°32'0 0.0
2018-Feb-12 21:30N 49°28' E 000°32'0 0.0
2018-Feb-12 21:00N 49°28' E 000°32'0 0.0
2018-Feb-12 20:30N 49°28' E 000°32'0 0.0
2018-Feb-12 20:00N 49°28' E 000°32'0 0.0
2018-Feb-12 19:30N 49°28' E 000°32'0 0.0
2018-Feb-12 19:00N 49°28' E 000°32'0 0.0
2018-Feb-12 18:30N 49°28' E 000°32'0 0.0
2018-Feb-12 17:57N 49°28' E 000°32'0 0.0
2018-Feb-12 17:30N 49°28' E 000°32'0 0.0
2018-Feb-12 16:57N 49°28' E 000°32'0 0.0
2018-Feb-12 16:27N 49°28' E 000°32'0 0.0
2018-Feb-12 15:57N 49°28' E 000°32'0 0.0
2018-Feb-12 15:30N 49°28' E 000°32'0 0.0
2018-Feb-12 14:57N 49°28' E 000°32'0 0.0
2018-Feb-12 14:30N 49°28' E 000°32'0 0.0
2018-Feb-12 13:57N 49°28' E 000°32'  

Dump ship's entire track history